Hauptseite
METAR-TAF:

METAR-TAF

Flughäfen :

Flughafen Pantelleria

Pantelleria, Italien

Breite: 36-49N, Länge: 011-58E, Höhe: 191 m

Beobachtung

Neuester Wetterbericht von vor 5 Stunden und 48 Minuten, um 17:55 UTC
Temperatur 23°C
Luftfeuchtigkeit 83%
Luftdruck 1020 hPa
Sichtweite 10 km oder mehr
Aufgelockert bewölkt in der Höhe von 2000 ft

METAR: LICG 251755Z /////KT 9999 SCT020 23/20 Q1020

Zeit: 01:43 (23:43 UTC)

Prognose

Neuester Wetterbericht von vor 6 Stunden und 43 Minuten, um 17:00 UTC
Gültige Prognose vom 25 um 18 UTC bis 26 um 03 UTC
Wind 3 kt aus unterschiedlichen Richtungen
Sichtweite 10 km oder mehr
Aufgelockert bewölkt in der Höhe von 2000 ft
Übergehend zu
vom 25 um 23 UTC bis 26 um 01 UTC
Wind 10 kt aus Ost

TAF: LICG 251700Z 2518/2603 VRB03KT 9999 SCT020 BECMG 2523/2601 09010KT

Wetterbeobachtungen und Prognosen von mehr als 4000 Flughäfen (METAR und TAF Bericht).

Die verfügbaren Stationen werden durch gelbe und rote Markierungen auf der Karte dargestellt.

Führen Sie die Maus auf sie, um den Namen der Station zu sehen.

Darauf klicken, um die Beobachtung von Wetterbeobachtungen und Prognosen zu sehen.

Um die Karte zu ändern : klicken Sie auf den grünen Tasten mit einem schwarzen Kreuz Zum Vergrößern, auf den grünen Button mit einem Gedankenstrich zu verkleinern, oder auf die grünen Pfeile für benachbarte Karten.


METAR-TAF: